sensor_id;sensor_type;location;lat;lon;timestamp;P1;durP1;ratioP1;P2;durP2;ratioP2
17648;SDS011;8943;51.110;-4.158;2023-02-15T00:00:15;28.43;;;19.53;;
17648;SDS011;8943;51.110;-4.158;2023-02-15T00:02:44;29.13;;;19.40;;
17648;SDS011;8943;51.110;-4.158;2023-02-15T00:05:12;30.40;;;20.70;;
17648;SDS011;8943;51.110;-4.158;2023-02-15T00:07:40;28.43;;;20.77;;
17648;SDS011;8943;51.110;-4.158;2023-02-15T00:10:08;32.27;;;23.13;;
17648;SDS011;8943;51.110;-4.158;2023-02-15T00:12:39;31.20;;;21.70;;
17648;SDS011;8943;51.110;-4.158;2023-02-15T00:15:07;33.03;;;22.43;;
17648;SDS011;8943;51.110;-4.158;2023-02-15T00:17:37;34.73;;;22.53;;
17648;SDS011;8943;51.110;-4.158;2023-02-15T00:20:06;33.93;;;21.37;;
17648;SDS011;8943;51.110;-4.158;2023-02-15T00:22:35;34.53;;;22.60;;
17648;SDS011;8943;51.110;-4.158;2023-02-15T00:25:03;34.77;;;22.43;;
17648;SDS011;8943;51.110;-4.158;2023-02-15T00:27:32;35.87;;;23.37;;
17648;SDS011;8943;51.110;-4.158;2023-02-15T00:30:02;33.40;;;23.63;;
17648;SDS011;8943;51.110;-4.158;2023-02-15T00:32:32;33.13;;;22.87;;
17648;SDS011;8943;51.110;-4.158;2023-02-15T00:35:00;34.87;;;23.70;;
17648;SDS011;8943;51.110;-4.158;2023-02-15T00:37:28;38.53;;;24.23;;
17648;SDS011;8943;51.110;-4.158;2023-02-15T00:39:56;38.57;;;25.67;;
17648;SDS011;8943;51.110;-4.158;2023-02-15T00:42:24;39.23;;;25.63;;
17648;SDS011;8943;51.110;-4.158;2023-02-15T00:44:52;35.53;;;23.53;;
17648;SDS011;8943;51.110;-4.158;2023-02-15T00:47:24;37.90;;;24.90;;
17648;SDS011;8943;51.110;-4.158;2023-02-15T00:49:52;38.77;;;24.37;;
17648;SDS011;8943;51.110;-4.158;2023-02-15T00:52:20;37.33;;;25.60;;
17648;SDS011;8943;51.110;-4.158;2023-02-15T00:54:48;36.60;;;25.47;;
17648;SDS011;8943;51.110;-4.158;2023-02-15T00:57:17;38.53;;;25.23;;
17648;SDS011;8943;51.110;-4.158;2023-02-15T00:59:45;40.37;;;26.97;;
17648;SDS011;8943;51.110;-4.158;2023-02-15T01:02:13;38.40;;;25.93;;
17648;SDS011;8943;51.110;-4.158;2023-02-15T01:04:42;36.27;;;24.63;;
17648;SDS011;8943;51.110;-4.158;2023-02-15T01:07:11;40.20;;;26.30;;
17648;SDS011;8943;51.110;-4.158;2023-02-15T01:09:39;35.77;;;26.50;;
17648;SDS011;8943;51.110;-4.158;2023-02-15T01:12:07;41.53;;;28.07;;
17648;SDS011;8943;51.110;-4.158;2023-02-15T01:14:35;46.03;;;28.10;;
17648;SDS011;8943;51.110;-4.158;2023-02-15T01:17:03;48.00;;;31.33;;
17648;SDS011;8943;51.110;-4.158;2023-02-15T01:19:31;40.47;;;28.83;;
17648;SDS011;8943;51.110;-4.158;2023-02-15T01:22:01;47.03;;;30.10;;
17648;SDS011;8943;51.110;-4.158;2023-02-15T01:24:30;44.83;;;30.13;;
17648;SDS011;8943;51.110;-4.158;2023-02-15T01:26:58;51.20;;;30.87;;
17648;SDS011;8943;51.110;-4.158;2023-02-15T01:29:26;45.13;;;28.83;;
17648;SDS011;8943;51.110;-4.158;2023-02-15T01:31:54;49.87;;;31.80;;
17648;SDS011;8943;51.110;-4.158;2023-02-15T01:34:22;47.80;;;30.87;;
17648;SDS011;8943;51.110;-4.158;2023-02-15T01:36:52;49.70;;;31.93;;
17648;SDS011;8943;51.110;-4.158;2023-02-15T01:39:22;47.80;;;33.13;;
17648;SDS011;8943;51.110;-4.158;2023-02-15T01:41:50;47.43;;;30.60;;
17648;SDS011;8943;51.110;-4.158;2023-02-15T01:47:20;50.97;;;31.43;;
17648;SDS011;8943;51.110;-4.158;2023-02-15T01:49:54;47.00;;;32.33;;
17648;SDS011;8943;51.110;-4.158;2023-02-15T01:52:27;46.50;;;31.67;;
17648;SDS011;8943;51.110;-4.158;2023-02-15T01:54:58;45.97;;;30.57;;
17648;SDS011;8943;51.110;-4.158;2023-02-15T01:57:26;49.97;;;31.80;;
17648;SDS011;8943;51.110;-4.158;2023-02-15T01:59:56;49.67;;;31.20;;
17648;SDS011;8943;51.110;-4.158;2023-02-15T02:02:29;49.63;;;33.63;;
17648;SDS011;8943;51.110;-4.158;2023-02-15T02:04:58;49.87;;;33.33;;
17648;SDS011;8943;51.110;-4.158;2023-02-15T02:07:29;49.63;;;32.50;;
17648;SDS011;8943;51.110;-4.158;2023-02-15T02:10:03;53.47;;;35.13;;
17648;SDS011;8943;51.110;-4.158;2023-02-15T02:12:33;53.47;;;35.00;;
17648;SDS011;8943;51.110;-4.158;2023-02-15T02:15:03;50.87;;;32.87;;
17648;SDS011;8943;51.110;-4.158;2023-02-15T02:17:34;51.70;;;33.27;;
17648;SDS011;8943;51.110;-4.158;2023-02-15T02:23:19;47.90;;;31.53;;
17648;SDS011;8943;51.110;-4.158;2023-02-15T02:26:11;51.77;;;32.23;;
17648;SDS011;8943;51.110;-4.158;2023-02-15T02:35:04;51.53;;;31.57;;
17648;SDS011;8943;51.110;-4.158;2023-02-15T02:37:42;59.40;;;33.67;;
17648;SDS011;8943;51.110;-4.158;2023-02-15T02:40:16;47.97;;;32.67;;
17648;SDS011;8943;51.110;-4.158;2023-02-15T02:42:54;44.10;;;30.77;;
17648;SDS011;8943;51.110;-4.158;2023-02-15T02:45:28;54.20;;;32.67;;
17648;SDS011;8943;51.110;-4.158;2023-02-15T02:48:03;48.07;;;32.00;;
17648;SDS011;8943;51.110;-4.158;2023-02-15T02:50:38;45.13;;;32.17;;
17648;SDS011;8943;51.110;-4.158;2023-02-15T02:53:08;50.07;;;31.43;;
17648;SDS011;8943;51.110;-4.158;2023-02-15T02:55:38;48.63;;;30.00;;
17648;SDS011;8943;51.110;-4.158;2023-02-15T02:58:10;50.13;;;31.47;;
17648;SDS011;8943;51.110;-4.158;2023-02-15T03:00:44;50.57;;;32.13;;
17648;SDS011;8943;51.110;-4.158;2023-02-15T03:03:17;50.80;;;30.97;;
17648;SDS011;8943;51.110;-4.158;2023-02-15T03:05:54;46.50;;;30.33;;
17648;SDS011;8943;51.110;-4.158;2023-02-15T03:08:26;49.17;;;30.30;;
17648;SDS011;8943;51.110;-4.158;2023-02-15T03:11:00;51.03;;;33.20;;
17648;SDS011;8943;51.110;-4.158;2023-02-15T03:13:30;49.30;;;31.77;;
17648;SDS011;8943;51.110;-4.158;2023-02-15T03:15:59;50.77;;;32.40;;
17648;SDS011;8943;51.110;-4.158;2023-02-15T03:18:48;49.83;;;33.63;;
17648;SDS011;8943;51.110;-4.158;2023-02-15T03:21:26;48.73;;;30.63;;
17648;SDS011;8943;51.110;-4.158;2023-02-15T03:23:59;47.13;;;31.23;;
17648;SDS011;8943;51.110;-4.158;2023-02-15T03:26:32;48.10;;;31.10;;
17648;SDS011;8943;51.110;-4.158;2023-02-15T03:29:02;45.03;;;30.60;;
17648;SDS011;8943;51.110;-4.158;2023-02-15T03:31:33;47.20;;;30.63;;
17648;SDS011;8943;51.110;-4.158;2023-02-15T03:34:06;51.90;;;32.07;;
17648;SDS011;8943;51.110;-4.158;2023-02-15T03:36:41;47.70;;;30.23;;
17648;SDS011;8943;51.110;-4.158;2023-02-15T03:39:17;46.90;;;31.07;;
17648;SDS011;8943;51.110;-4.158;2023-02-15T03:41:49;44.73;;;29.50;;
17648;SDS011;8943;51.110;-4.158;2023-02-15T03:44:25;46.13;;;30.07;;
17648;SDS011;8943;51.110;-4.158;2023-02-15T03:46:59;47.73;;;30.77;;
17648;SDS011;8943;51.110;-4.158;2023-02-15T03:49:34;48.07;;;30.13;;
17648;SDS011;8943;51.110;-4.158;2023-02-15T03:52:08;45.73;;;30.07;;
17648;SDS011;8943;51.110;-4.158;2023-02-15T03:54:38;45.90;;;28.43;;
17648;SDS011;8943;51.110;-4.158;2023-02-15T03:57:14;42.20;;;29.13;;
17648;SDS011;8943;51.110;-4.158;2023-02-15T04:00:02;42.80;;;28.23;;
17648;SDS011;8943;51.110;-4.158;2023-02-15T04:03:10;42.00;;;28.33;;
17648;SDS011;8943;51.110;-4.158;2023-02-15T04:05:48;42.57;;;28.17;;
17648;SDS011;8943;51.110;-4.158;2023-02-15T04:08:17;44.90;;;29.33;;
17648;SDS011;8943;51.110;-4.158;2023-02-15T04:10:45;43.17;;;28.27;;
17648;SDS011;8943;51.110;-4.158;2023-02-15T04:13:18;47.10;;;27.27;;
17648;SDS011;8943;51.110;-4.158;2023-02-15T04:15:46;40.20;;;27.93;;
17648;SDS011;8943;51.110;-4.158;2023-02-15T04:18:33;32.77;;;21.80;;
17648;SDS011;8943;51.110;-4.158;2023-02-15T04:21:20;43.70;;;28.83;;
17648;SDS011;8943;51.110;-4.158;2023-02-15T04:24:09;40.60;;;26.90;;
17648;SDS011;8943;51.110;-4.158;2023-02-15T04:26:55;39.80;;;26.47;;
17648;SDS011;8943;51.110;-4.158;2023-02-15T04:29:23;40.37;;;25.53;;
17648;SDS011;8943;51.110;-4.158;2023-02-15T04:31:53;37.80;;;24.90;;
17648;SDS011;8943;51.110;-4.158;2023-02-15T04:34:22;35.83;;;24.33;;
17648;SDS011;8943;51.110;-4.158;2023-02-15T04:36:51;36.73;;;24.37;;
17648;SDS011;8943;51.110;-4.158;2023-02-15T04:39:20;36.47;;;23.37;;
17648;SDS011;8943;51.110;-4.158;2023-02-15T04:41:48;34.93;;;23.47;;
17648;SDS011;8943;51.110;-4.158;2023-02-15T04:44:16;34.23;;;22.37;;
17648;SDS011;8943;51.110;-4.158;2023-02-15T04:46:44;31.27;;;22.57;;
17648;SDS011;8943;51.110;-4.158;2023-02-15T04:49:12;31.83;;;21.77;;
17648;SDS011;8943;51.110;-4.158;2023-02-15T04:51:40;36.37;;;21.77;;
17648;SDS011;8943;51.110;-4.158;2023-02-15T04:54:08;31.20;;;21.97;;
17648;SDS011;8943;51.110;-4.158;2023-02-15T04:56:38;32.70;;;20.20;;
17648;SDS011;8943;51.110;-4.158;2023-02-15T04:59:08;28.57;;;19.47;;
17648;SDS011;8943;51.110;-4.158;2023-02-15T05:01:37;31.10;;;19.80;;
17648;SDS011;8943;51.110;-4.158;2023-02-15T05:04:05;30.50;;;19.07;;
17648;SDS011;8943;51.110;-4.158;2023-02-15T05:06:33;27.37;;;19.30;;
17648;SDS011;8943;51.110;-4.158;2023-02-15T05:09:02;29.77;;;18.77;;
17648;SDS011;8943;51.110;-4.158;2023-02-15T05:11:30;28.43;;;18.87;;
17648;SDS011;8943;51.110;-4.158;2023-02-15T05:13:59;30.83;;;19.73;;
17648;SDS011;8943;51.110;-4.158;2023-02-15T05:16:27;31.07;;;19.50;;
17648;SDS011;8943;51.110;-4.158;2023-02-15T05:18:57;28.50;;;19.63;;
17648;SDS011;8943;51.110;-4.158;2023-02-15T05:21:25;29.50;;;19.93;;
17648;SDS011;8943;51.110;-4.158;2023-02-15T05:23:54;29.20;;;19.90;;
17648;SDS011;8943;51.110;-4.158;2023-02-15T05:26:22;31.40;;;19.53;;
17648;SDS011;8943;51.110;-4.158;2023-02-15T05:29:10;31.20;;;18.60;;
17648;SDS011;8943;51.110;-4.158;2023-02-15T05:31:38;26.67;;;19.13;;
17648;SDS011;8943;51.110;-4.158;2023-02-15T05:34:07;30.60;;;19.37;;
17648;SDS011;8943;51.110;-4.158;2023-02-15T05:36:35;30.70;;;19.30;;
17648;SDS011;8943;51.110;-4.158;2023-02-15T05:39:03;25.17;;;18.50;;
17648;SDS011;8943;51.110;-4.158;2023-02-15T05:41:32;30.20;;;19.23;;
17648;SDS011;8943;51.110;-4.158;2023-02-15T05:44:00;33.03;;;18.73;;
17648;SDS011;8943;51.110;-4.158;2023-02-15T05:46:29;32.13;;;20.77;;
17648;SDS011;8943;51.110;-4.158;2023-02-15T05:48:58;27.27;;;18.30;;
17648;SDS011;8943;51.110;-4.158;2023-02-15T05:51:26;27.50;;;18.33;;
17648;SDS011;8943;51.110;-4.158;2023-02-15T05:53:54;29.20;;;19.50;;
17648;SDS011;8943;51.110;-4.158;2023-02-15T05:56:22;28.13;;;19.23;;
17648;SDS011;8943;51.110;-4.158;2023-02-15T05:58:52;30.97;;;19.97;;
17648;SDS011;8943;51.110;-4.158;2023-02-15T06:01:20;29.93;;;18.63;;
17648;SDS011;8943;51.110;-4.158;2023-02-15T06:03:50;25.93;;;18.63;;
17648;SDS011;8943;51.110;-4.158;2023-02-15T06:06:20;27.87;;;18.80;;
17648;SDS011;8943;51.110;-4.158;2023-02-15T06:08:48;31.83;;;18.50;;
17648;SDS011;8943;51.110;-4.158;2023-02-15T06:11:16;30.00;;;18.43;;
17648;SDS011;8943;51.110;-4.158;2023-02-15T06:13:44;26.57;;;18.13;;
17648;SDS011;8943;51.110;-4.158;2023-02-15T06:16:12;29.13;;;18.27;;
17648;SDS011;8943;51.110;-4.158;2023-02-15T06:18:42;31.30;;;19.50;;
17648;SDS011;8943;51.110;-4.158;2023-02-15T06:21:12;29.23;;;18.33;;
17648;SDS011;8943;51.110;-4.158;2023-02-15T06:23:40;27.97;;;18.60;;
17648;SDS011;8943;51.110;-4.158;2023-02-15T06:26:09;30.47;;;19.67;;
17648;SDS011;8943;51.110;-4.158;2023-02-15T06:28:37;31.67;;;18.60;;
17648;SDS011;8943;51.110;-4.158;2023-02-15T06:31:07;30.50;;;19.07;;
17648;SDS011;8943;51.110;-4.158;2023-02-15T06:33:35;32.50;;;19.63;;
17648;SDS011;8943;51.110;-4.158;2023-02-15T06:36:04;32.13;;;22.07;;
17648;SDS011;8943;51.110;-4.158;2023-02-15T06:38:34;28.70;;;19.47;;
17648;SDS011;8943;51.110;-4.158;2023-02-15T06:41:02;28.70;;;20.60;;
17648;SDS011;8943;51.110;-4.158;2023-02-15T06:43:30;33.67;;;20.80;;
17648;SDS011;8943;51.110;-4.158;2023-02-15T06:45:58;31.50;;;20.80;;
17648;SDS011;8943;51.110;-4.158;2023-02-15T06:48:26;33.13;;;20.97;;
17648;SDS011;8943;51.110;-4.158;2023-02-15T06:50:55;32.37;;;20.77;;
17648;SDS011;8943;51.110;-4.158;2023-02-15T06:53:23;37.20;;;20.53;;
17648;SDS011;8943;51.110;-4.158;2023-02-15T06:55:52;31.97;;;18.37;;
17648;SDS011;8943;51.110;-4.158;2023-02-15T06:58:20;26.23;;;17.73;;
17648;SDS011;8943;51.110;-4.158;2023-02-15T07:00:48;31.77;;;19.67;;
17648;SDS011;8943;51.110;-4.158;2023-02-15T07:03:18;31.37;;;19.20;;
17648;SDS011;8943;51.110;-4.158;2023-02-15T07:05:46;24.87;;;17.47;;
17648;SDS011;8943;51.110;-4.158;2023-02-15T07:08:15;28.47;;;18.40;;
17648;SDS011;8943;51.110;-4.158;2023-02-15T07:10:46;26.53;;;17.03;;
17648;SDS011;8943;51.110;-4.158;2023-02-15T07:13:18;31.67;;;20.03;;
17648;SDS011;8943;51.110;-4.158;2023-02-15T07:15:45;39.17;;;20.80;;
17648;SDS011;8943;51.110;-4.158;2023-02-15T07:18:14;34.60;;;20.27;;
17648;SDS011;8943;51.110;-4.158;2023-02-15T07:20:42;29.47;;;18.37;;
17648;SDS011;8943;51.110;-4.158;2023-02-15T07:23:10;29.93;;;18.60;;
17648;SDS011;8943;51.110;-4.158;2023-02-15T07:25:38;28.17;;;17.30;;
17648;SDS011;8943;51.110;-4.158;2023-02-15T07:28:07;82.97;;;25.80;;
17648;SDS011;8943;51.110;-4.158;2023-02-15T07:30:37;34.60;;;20.10;;
17648;SDS011;8943;51.110;-4.158;2023-02-15T07:33:06;30.07;;;18.20;;
17648;SDS011;8943;51.110;-4.158;2023-02-15T07:35:53;37.57;;;23.20;;
17648;SDS011;8943;51.110;-4.158;2023-02-15T07:38:29;29.33;;;19.63;;
17648;SDS011;8943;51.110;-4.158;2023-02-15T07:40:58;29.67;;;20.73;;
17648;SDS011;8943;51.110;-4.158;2023-02-15T07:43:27;41.33;;;25.43;;
17648;SDS011;8943;51.110;-4.158;2023-02-15T07:45:59;33.13;;;22.57;;
17648;SDS011;8943;51.110;-4.158;2023-02-15T07:48:29;29.83;;;18.90;;
17648;SDS011;8943;51.110;-4.158;2023-02-15T07:50:58;32.23;;;19.43;;
17648;SDS011;8943;51.110;-4.158;2023-02-15T07:53:27;28.83;;;19.43;;
17648;SDS011;8943;51.110;-4.158;2023-02-15T07:55:57;26.40;;;19.03;;
17648;SDS011;8943;51.110;-4.158;2023-02-15T07:58:26;52.13;;;21.07;;
17648;SDS011;8943;51.110;-4.158;2023-02-15T08:01:10;204.07;;;33.47;;
17648;SDS011;8943;51.110;-4.158;2023-02-15T08:03:38;30.97;;;21.97;;
17648;SDS011;8943;51.110;-4.158;2023-02-15T08:06:07;48.43;;;23.57;;
17648;SDS011;8943;51.110;-4.158;2023-02-15T08:08:36;28.70;;;17.60;;
17648;SDS011;8943;51.110;-4.158;2023-02-15T08:11:05;39.00;;;19.27;;
17648;SDS011;8943;51.110;-4.158;2023-02-15T08:13:52;33.40;;;21.87;;
17648;SDS011;8943;51.110;-4.158;2023-02-15T08:16:24;31.83;;;18.87;;
17648;SDS011;8943;51.110;-4.158;2023-02-15T08:18:54;26.53;;;17.30;;
17648;SDS011;8943;51.110;-4.158;2023-02-15T08:21:24;26.70;;;16.37;;
17648;SDS011;8943;51.110;-4.158;2023-02-15T08:23:54;23.90;;;15.60;;
17648;SDS011;8943;51.110;-4.158;2023-02-15T08:26:23;21.30;;;15.57;;
17648;SDS011;8943;51.110;-4.158;2023-02-15T08:28:53;27.07;;;15.60;;
17648;SDS011;8943;51.110;-4.158;2023-02-15T08:31:21;22.50;;;15.33;;
17648;SDS011;8943;51.110;-4.158;2023-02-15T08:33:53;26.93;;;17.67;;
17648;SDS011;8943;51.110;-4.158;2023-02-15T08:36:22;22.93;;;15.53;;
17648;SDS011;8943;51.110;-4.158;2023-02-15T08:38:53;63.87;;;20.33;;
17648;SDS011;8943;51.110;-4.158;2023-02-15T08:41:22;31.80;;;15.33;;
17648;SDS011;8943;51.110;-4.158;2023-02-15T08:43:51;23.87;;;15.20;;
17648;SDS011;8943;51.110;-4.158;2023-02-15T08:46:21;17.60;;;12.80;;
17648;SDS011;8943;51.110;-4.158;2023-02-15T08:48:52;23.77;;;15.80;;
17648;SDS011;8943;51.110;-4.158;2023-02-15T08:51:21;26.07;;;14.30;;
17648;SDS011;8943;51.110;-4.158;2023-02-15T08:53:51;21.53;;;14.43;;
17648;SDS011;8943;51.110;-4.158;2023-02-15T08:56:21;36.10;;;22.63;;
17648;SDS011;8943;51.110;-4.158;2023-02-15T08:58:52;28.77;;;19.13;;
17648;SDS011;8943;51.110;-4.158;2023-02-15T09:01:21;18.93;;;13.17;;
17648;SDS011;8943;51.110;-4.158;2023-02-15T09:03:54;22.37;;;13.77;;
17648;SDS011;8943;51.110;-4.158;2023-02-15T09:06:23;22.87;;;12.87;;
17648;SDS011;8943;51.110;-4.158;2023-02-15T09:08:53;29.53;;;18.10;;
17648;SDS011;8943;51.110;-4.158;2023-02-15T09:11:21;23.57;;;15.33;;
17648;SDS011;8943;51.110;-4.158;2023-02-15T09:13:51;25.23;;;14.83;;
17648;SDS011;8943;51.110;-4.158;2023-02-15T09:16:22;21.40;;;13.50;;
17648;SDS011;8943;51.110;-4.158;2023-02-15T09:18:51;20.20;;;12.90;;
17648;SDS011;8943;51.110;-4.158;2023-02-15T09:21:21;28.10;;;17.00;;
17648;SDS011;8943;51.110;-4.158;2023-02-15T09:23:52;43.40;;;26.90;;
17648;SDS011;8943;51.110;-4.158;2023-02-15T09:26:24;26.67;;;16.40;;
17648;SDS011;8943;51.110;-4.158;2023-02-15T09:28:53;24.63;;;13.90;;
17648;SDS011;8943;51.110;-4.158;2023-02-15T09:31:23;22.83;;;12.60;;
17648;SDS011;8943;51.110;-4.158;2023-02-15T09:33:53;23.57;;;14.13;;
17648;SDS011;8943;51.110;-4.158;2023-02-15T09:36:24;19.30;;;12.40;;
17648;SDS011;8943;51.110;-4.158;2023-02-15T09:38:55;25.80;;;15.27;;
17648;SDS011;8943;51.110;-4.158;2023-02-15T09:41:30;23.23;;;12.47;;
17648;SDS011;8943;51.110;-4.158;2023-02-15T09:44:12;17.37;;;10.43;;
17648;SDS011;8943;51.110;-4.158;2023-02-15T09:46:59;18.23;;;10.63;;
17648;SDS011;8943;51.110;-4.158;2023-02-15T09:49:43;18.63;;;11.23;;
17648;SDS011;8943;51.110;-4.158;2023-02-15T09:52:26;19.30;;;10.13;;
17648;SDS011;8943;51.110;-4.158;2023-02-15T09:55:08;33.53;;;19.53;;
17648;SDS011;8943;51.110;-4.158;2023-02-15T09:57:53;20.70;;;11.33;;
17648;SDS011;8943;51.110;-4.158;2023-02-15T10:00:33;18.70;;;10.57;;
17648;SDS011;8943;51.110;-4.158;2023-02-15T10:03:13;18.77;;;9.77;;
17648;SDS011;8943;51.110;-4.158;2023-02-15T10:05:55;22.70;;;12.03;;
17648;SDS011;8943;51.110;-4.158;2023-02-15T10:08:40;14.87;;;9.67;;
17648;SDS011;8943;51.110;-4.158;2023-02-15T10:11:25;16.93;;;9.37;;
17648;SDS011;8943;51.110;-4.158;2023-02-15T10:14:12;20.90;;;10.20;;
17648;SDS011;8943;51.110;-4.158;2023-02-15T10:17:08;21.60;;;9.67;;
17648;SDS011;8943;51.110;-4.158;2023-02-15T10:19:50;16.13;;;9.70;;
17648;SDS011;8943;51.110;-4.158;2023-02-15T10:22:34;14.23;;;9.47;;
17648;SDS011;8943;51.110;-4.158;2023-02-15T10:25:15;13.30;;;8.57;;
17648;SDS011;8943;51.110;-4.158;2023-02-15T10:27:56;17.37;;;8.80;;
17648;SDS011;8943;51.110;-4.158;2023-02-15T10:30:32;18.33;;;10.70;;
17648;SDS011;8943;51.110;-4.158;2023-02-15T10:33:09;14.30;;;9.10;;
17648;SDS011;8943;51.110;-4.158;2023-02-15T10:35:49;22.03;;;9.90;;
17648;SDS011;8943;51.110;-4.158;2023-02-15T10:38:30;15.60;;;9.37;;
17648;SDS011;8943;51.110;-4.158;2023-02-15T10:41:12;17.30;;;8.63;;
17648;SDS011;8943;51.110;-4.158;2023-02-15T10:43:56;16.60;;;8.90;;
17648;SDS011;8943;51.110;-4.158;2023-02-15T10:46:47;17.93;;;8.43;;
17648;SDS011;8943;51.110;-4.158;2023-02-15T10:49:33;17.33;;;8.77;;
17648;SDS011;8943;51.110;-4.158;2023-02-15T10:52:24;13.40;;;9.27;;
17648;SDS011;8943;51.110;-4.158;2023-02-15T10:55:02;16.30;;;9.33;;
17648;SDS011;8943;51.110;-4.158;2023-02-15T10:57:44;15.90;;;9.40;;
17648;SDS011;8943;51.110;-4.158;2023-02-15T11:00:22;25.43;;;10.67;;
17648;SDS011;8943;51.110;-4.158;2023-02-15T11:03:05;19.60;;;9.43;;
17648;SDS011;8943;51.110;-4.158;2023-02-15T11:05:51;19.30;;;10.23;;
17648;SDS011;8943;51.110;-4.158;2023-02-15T11:08:26;15.90;;;9.07;;
17648;SDS011;8943;51.110;-4.158;2023-02-15T11:10:59;18.30;;;9.73;;
17648;SDS011;8943;51.110;-4.158;2023-02-15T11:13:33;17.93;;;7.77;;
17648;SDS011;8943;51.110;-4.158;2023-02-15T11:16:06;16.47;;;6.60;;
17648;SDS011;8943;51.110;-4.158;2023-02-15T11:18:45;17.90;;;6.17;;
17648;SDS011;8943;51.110;-4.158;2023-02-15T11:21:20;18.30;;;6.07;;
17648;SDS011;8943;51.110;-4.158;2023-02-15T11:23:52;22.20;;;6.90;;
17648;SDS011;8943;51.110;-4.158;2023-02-15T11:26:21;17.93;;;6.43;;
17648;SDS011;8943;51.110;-4.158;2023-02-15T11:28:58;16.33;;;6.17;;
17648;SDS011;8943;51.110;-4.158;2023-02-15T11:31:34;17.43;;;5.07;;
17648;SDS011;8943;51.110;-4.158;2023-02-15T11:34:12;20.07;;;5.67;;
17648;SDS011;8943;51.110;-4.158;2023-02-15T11:36:47;14.97;;;3.53;;
17648;SDS011;8943;51.110;-4.158;2023-02-15T11:39:18;12.20;;;2.93;;
17648;SDS011;8943;51.110;-4.158;2023-02-15T11:41:50;13.37;;;3.87;;
17648;SDS011;8943;51.110;-4.158;2023-02-15T11:44:23;19.87;;;3.27;;
17648;SDS011;8943;51.110;-4.158;2023-02-15T11:46:55;15.73;;;3.77;;
17648;SDS011;8943;51.110;-4.158;2023-02-15T11:49:25;22.33;;;3.57;;
17648;SDS011;8943;51.110;-4.158;2023-02-15T11:51:57;16.73;;;2.80;;
17648;SDS011;8943;51.110;-4.158;2023-02-15T11:54:27;17.23;;;3.27;;
17648;SDS011;8943;51.110;-4.158;2023-02-15T11:56:59;5.70;;;2.43;;
17648;SDS011;8943;51.110;-4.158;2023-02-15T11:59:40;11.40;;;2.83;;
17648;SDS011;8943;51.110;-4.158;2023-02-15T12:02:15;11.13;;;2.43;;
17648;SDS011;8943;51.110;-4.158;2023-02-15T12:04:46;10.27;;;2.17;;
17648;SDS011;8943;51.110;-4.158;2023-02-15T12:07:20;4.50;;;1.90;;
17648;SDS011;8943;51.110;-4.158;2023-02-15T12:09:53;5.07;;;1.77;;
17648;SDS011;8943;51.110;-4.158;2023-02-15T12:12:29;5.67;;;1.23;;
17648;SDS011;8943;51.110;-4.158;2023-02-15T12:15:00;11.20;;;5.17;;
17648;SDS011;8943;51.110;-4.158;2023-02-15T12:17:29;10.70;;;5.40;;
17648;SDS011;8943;51.110;-4.158;2023-02-15T12:20:00;6.50;;;2.70;;
17648;SDS011;8943;51.110;-4.158;2023-02-15T12:22:32;3.40;;;0.93;;
17648;SDS011;8943;51.110;-4.158;2023-02-15T12:25:03;3.50;;;1.40;;
17648;SDS011;8943;51.110;-4.158;2023-02-15T12:27:47;3.73;;;1.00;;
17648;SDS011;8943;51.110;-4.158;2023-02-15T12:30:18;3.87;;;1.00;;
17648;SDS011;8943;51.110;-4.158;2023-02-15T12:32:50;10.27;;;2.37;;
17648;SDS011;8943;51.110;-4.158;2023-02-15T12:35:22;12.03;;;2.47;;
17648;SDS011;8943;51.110;-4.158;2023-02-15T12:37:56;14.13;;;2.40;;
17648;SDS011;8943;51.110;-4.158;2023-02-15T12:40:28;5.83;;;1.53;;
17648;SDS011;8943;51.110;-4.158;2023-02-15T12:42:57;3.47;;;1.20;;
17648;SDS011;8943;51.110;-4.158;2023-02-15T12:45:26;11.00;;;2.10;;
17648;SDS011;8943;51.110;-4.158;2023-02-15T12:48:07;6.83;;;1.73;;
17648;SDS011;8943;51.110;-4.158;2023-02-15T12:50:43;38.67;;;5.27;;
17648;SDS011;8943;51.110;-4.158;2023-02-15T12:53:14;11.03;;;2.30;;
17648;SDS011;8943;51.110;-4.158;2023-02-15T12:55:54;8.93;;;1.60;;
17648;SDS011;8943;51.110;-4.158;2023-02-15T12:58:24;7.60;;;1.97;;
17648;SDS011;8943;51.110;-4.158;2023-02-15T13:01:11;6.97;;;2.17;;
17648;SDS011;8943;51.110;-4.158;2023-02-15T13:03:54;4.77;;;1.33;;
17648;SDS011;8943;51.110;-4.158;2023-02-15T13:06:25;5.17;;;1.20;;
17648;SDS011;8943;51.110;-4.158;2023-02-15T13:08:54;5.67;;;1.33;;
17648;SDS011;8943;51.110;-4.158;2023-02-15T13:11:25;8.80;;;1.57;;
17648;SDS011;8943;51.110;-4.158;2023-02-15T13:14:01;6.20;;;2.23;;
17648;SDS011;8943;51.110;-4.158;2023-02-15T13:16:32;6.00;;;1.77;;
17648;SDS011;8943;51.110;-4.158;2023-02-15T13:19:03;5.43;;;1.50;;
17648;SDS011;8943;51.110;-4.158;2023-02-15T13:21:39;9.57;;;2.33;;
17648;SDS011;8943;51.110;-4.158;2023-02-15T13:24:13;15.07;;;2.07;;
17648;SDS011;8943;51.110;-4.158;2023-02-15T13:26:45;8.87;;;2.77;;
17648;SDS011;8943;51.110;-4.158;2023-02-15T13:29:16;8.23;;;3.20;;
17648;SDS011;8943;51.110;-4.158;2023-02-15T13:31:50;11.83;;;3.97;;
17648;SDS011;8943;51.110;-4.158;2023-02-15T13:34:20;6.80;;;1.53;;
17648;SDS011;8943;51.110;-4.158;2023-02-15T13:36:54;7.30;;;1.90;;
17648;SDS011;8943;51.110;-4.158;2023-02-15T13:39:30;12.17;;;2.00;;
17648;SDS011;8943;51.110;-4.158;2023-02-15T13:42:17;9.53;;;2.33;;
17648;SDS011;8943;51.110;-4.158;2023-02-15T13:45:02;12.13;;;2.57;;
17648;SDS011;8943;51.110;-4.158;2023-02-15T13:47:44;14.13;;;4.83;;
17648;SDS011;8943;51.110;-4.158;2023-02-15T13:50:21;9.57;;;3.23;;
17648;SDS011;8943;51.110;-4.158;2023-02-15T13:53:08;10.90;;;1.83;;
17648;SDS011;8943;51.110;-4.158;2023-02-15T13:55:47;15.70;;;3.00;;
17648;SDS011;8943;51.110;-4.158;2023-02-15T13:58:35;11.23;;;2.47;;
17648;SDS011;8943;51.110;-4.158;2023-02-15T14:01:19;7.27;;;1.47;;
17648;SDS011;8943;51.110;-4.158;2023-02-15T14:07:07;8.80;;;1.73;;
17648;SDS011;8943;51.110;-4.158;2023-02-15T14:09:46;7.33;;;1.57;;
17648;SDS011;8943;51.110;-4.158;2023-02-15T14:12:26;8.17;;;1.70;;
17648;SDS011;8943;51.110;-4.158;2023-02-15T14:15:09;8.50;;;1.57;;
17648;SDS011;8943;51.110;-4.158;2023-02-15T14:17:52;7.60;;;1.93;;
17648;SDS011;8943;51.110;-4.158;2023-02-15T14:20:31;11.67;;;5.07;;
17648;SDS011;8943;51.110;-4.158;2023-02-15T14:23:10;5.10;;;1.57;;
17648;SDS011;8943;51.110;-4.158;2023-02-15T14:25:54;9.50;;;2.30;;
17648;SDS011;8943;51.110;-4.158;2023-02-15T14:28:26;8.43;;;2.30;;
17648;SDS011;8943;51.110;-4.158;2023-02-15T14:31:01;4.57;;;1.83;;
17648;SDS011;8943;51.110;-4.158;2023-02-15T14:33:33;6.97;;;1.77;;
17648;SDS011;8943;51.110;-4.158;2023-02-15T14:36:06;2.63;;;1.00;;
17648;SDS011;8943;51.110;-4.158;2023-02-15T14:38:47;11.50;;;1.83;;
17648;SDS011;8943;51.110;-4.158;2023-02-15T14:41:24;11.63;;;2.93;;
17648;SDS011;8943;51.110;-4.158;2023-02-15T14:43:58;9.57;;;1.40;;
17648;SDS011;8943;51.110;-4.158;2023-02-15T14:46:30;8.03;;;1.37;;
17648;SDS011;8943;51.110;-4.158;2023-02-15T14:49:08;4.97;;;1.90;;
17648;SDS011;8943;51.110;-4.158;2023-02-15T14:51:53;4.37;;;1.20;;
17648;SDS011;8943;51.110;-4.158;2023-02-15T14:57:34;5.70;;;1.33;;
17648;SDS011;8943;51.110;-4.158;2023-02-15T15:03:10;5.77;;;1.20;;
17648;SDS011;8943;51.110;-4.158;2023-02-15T15:05:47;4.83;;;0.97;;
17648;SDS011;8943;51.110;-4.158;2023-02-15T15:08:22;6.87;;;1.37;;
17648;SDS011;8943;51.110;-4.158;2023-02-15T15:10:57;4.43;;;0.90;;
17648;SDS011;8943;51.110;-4.158;2023-02-15T15:14:09;2.93;;;0.80;;
17648;SDS011;8943;51.110;-4.158;2023-02-15T15:16:48;4.77;;;0.93;;
17648;SDS011;8943;51.110;-4.158;2023-02-15T15:22:34;3.97;;;1.07;;
17648;SDS011;8943;51.110;-4.158;2023-02-15T15:25:04;6.50;;;1.47;;
17648;SDS011;8943;51.110;-4.158;2023-02-15T15:27:42;2.70;;;1.17;;